createdAt,value
2024-01-24T00:01:55.837Z,79.10
2024-01-24T00:04:25.127Z,74.10
2024-01-24T00:06:53.951Z,74.20
2024-01-24T00:09:22.873Z,76.00
2024-01-24T00:11:51.788Z,75.90
2024-01-24T00:14:20.618Z,68.40
2024-01-24T00:16:49.402Z,84.20
2024-01-24T00:19:19.228Z,75.40
2024-01-24T00:21:48.050Z,81.40
2024-01-24T00:24:16.871Z,75.70
2024-01-24T00:26:45.713Z,70.60
2024-01-24T00:29:14.575Z,73.60
2024-01-24T00:31:43.738Z,71.40
2024-01-24T00:34:12.492Z,75.50
2024-01-24T00:36:41.322Z,73.20
2024-01-24T00:39:10.742Z,75.40
2024-01-24T00:41:43.195Z,79.90
2024-01-24T00:44:11.929Z,78.80
2024-01-24T00:46:40.638Z,72.50
2024-01-24T00:49:14.362Z,71.50
2024-01-24T00:51:43.150Z,74.70
2024-01-24T00:54:12.081Z,75.50
2024-01-24T00:56:41.950Z,81.90
2024-01-24T00:59:10.745Z,68.70
2024-01-24T01:01:39.623Z,75.50
2024-01-24T01:04:08.407Z,72.90
2024-01-24T01:06:37.233Z,77.50
2024-01-24T01:09:06.211Z,70.50
2024-01-24T01:11:35.034Z,74.40
2024-01-24T01:14:04.860Z,74.90
2024-01-24T01:16:33.597Z,74.60
2024-01-24T01:19:02.452Z,75.20
2024-01-24T01:21:31.304Z,77.20
2024-01-24T01:23:59.993Z,74.50
2024-01-24T01:26:28.711Z,75.40
2024-01-24T01:28:57.432Z,73.50
2024-01-24T01:31:26.176Z,75.30
2024-01-24T01:33:55.495Z,73.00
2024-01-24T01:36:24.291Z,67.80
2024-01-24T01:38:53.179Z,65.60
2024-01-24T01:41:21.995Z,68.30
2024-01-24T01:43:50.681Z,72.50
2024-01-24T01:46:20.405Z,69.20
2024-01-24T01:48:51.641Z,70.40
2024-01-24T01:51:23.593Z,71.10
2024-01-24T01:53:52.448Z,73.10
2024-01-24T01:56:23.729Z,70.90
2024-01-24T01:58:53.660Z,71.40
2024-01-24T02:01:23.228Z,71.30
2024-01-24T02:03:52.587Z,72.60
2024-01-24T02:06:21.573Z,75.70
2024-01-24T02:08:50.479Z,74.00
2024-01-24T02:11:19.342Z,79.80
2024-01-24T02:13:48.188Z,79.30
2024-01-24T02:16:19.180Z,74.50
2024-01-24T02:18:51.532Z,77.60
2024-01-24T02:21:20.674Z,76.30
2024-01-24T02:23:49.498Z,81.20
2024-01-24T02:26:18.207Z,75.60
2024-01-24T02:28:46.888Z,76.00
2024-01-24T02:31:15.734Z,75.10
2024-01-24T02:33:44.688Z,72.50
2024-01-24T02:36:16.573Z,73.70
2024-01-24T02:38:45.466Z,80.30
2024-01-24T02:41:14.262Z,79.80
2024-01-24T02:43:43.045Z,75.60
2024-01-24T02:46:12.323Z,80.80
2024-01-24T02:48:41.596Z,79.50
2024-01-24T02:51:10.314Z,72.90
2024-01-24T02:53:40.947Z,74.60
2024-01-24T02:56:09.653Z,74.30
2024-01-24T02:58:38.315Z,75.70
2024-01-24T03:01:07.679Z,77.40
2024-01-24T03:03:40.001Z,71.00
2024-01-24T03:06:09.407Z,72.10
2024-01-24T03:08:59.416Z,72.40
2024-01-24T03:11:28.190Z,78.40
2024-01-24T03:13:56.990Z,71.50
2024-01-24T03:16:25.812Z,73.40
2024-01-24T03:18:55.228Z,73.40
2024-01-24T03:21:24.144Z,74.00
2024-01-24T03:23:52.917Z,74.10
2024-01-24T03:26:21.636Z,76.00
2024-01-24T03:28:50.333Z,67.90
2024-01-24T03:31:19.080Z,78.50
2024-01-24T03:33:47.867Z,68.30
2024-01-24T03:36:16.913Z,75.90
2024-01-24T03:38:45.662Z,77.50
2024-01-24T03:41:14.514Z,75.50
2024-01-24T03:43:43.743Z,80.70
2024-01-24T03:46:12.521Z,75.80
2024-01-24T03:48:41.434Z,72.80
2024-01-24T03:51:12.794Z,73.30
2024-01-24T03:53:41.853Z,69.30
2024-01-24T03:56:10.710Z,74.20
2024-01-24T03:58:39.440Z,75.40
2024-01-24T04:01:08.279Z,76.80
2024-01-24T04:03:37.668Z,75.30
2024-01-24T04:06:06.788Z,70.00
2024-01-24T04:08:35.466Z,72.30
2024-01-24T04:11:04.429Z,69.50
2024-01-24T04:13:33.801Z,79.10
2024-01-24T04:16:02.556Z,72.50
2024-01-24T04:18:31.389Z,69.20
2024-01-24T04:21:03.231Z,69.10
2024-01-24T04:23:31.981Z,70.70
2024-01-24T04:26:00.711Z,80.80
2024-01-24T04:28:29.448Z,74.70
2024-01-24T04:30:58.221Z,75.80
2024-01-24T04:33:27.134Z,72.10
2024-01-24T04:35:58.569Z,72.20
2024-01-24T04:38:27.307Z,75.50
2024-01-24T04:40:56.046Z,69.40
2024-01-24T04:43:24.736Z,75.80
2024-01-24T04:45:53.622Z,77.20
2024-01-24T04:48:23.288Z,76.60
2024-01-24T04:50:52.071Z,76.80
2024-01-24T04:53:21.391Z,79.10
2024-01-24T04:55:50.154Z,82.40
2024-01-24T04:58:18.943Z,84.10
2024-01-24T05:00:48.929Z,88.90
2024-01-24T05:03:17.781Z,82.30
2024-01-24T05:05:47.695Z,81.40
2024-01-24T05:08:17.577Z,79.90
2024-01-24T05:10:46.435Z,88.80
2024-01-24T05:13:15.217Z,100.70
2024-01-24T05:15:43.947Z,84.90
2024-01-24T05:18:12.951Z,79.10
2024-01-24T05:20:41.787Z,81.30
2024-01-24T05:23:10.516Z,73.80
2024-01-24T05:25:39.277Z,74.50
2024-01-24T05:28:09.561Z,80.40
2024-01-24T05:30:39.433Z,80.50
2024-01-24T05:33:08.425Z,73.60
2024-01-24T05:35:37.136Z,73.60
2024-01-24T05:38:05.889Z,73.90
2024-01-24T05:40:34.675Z,70.50
2024-01-24T05:43:04.900Z,74.10
2024-01-24T05:45:33.774Z,88.80
2024-01-24T05:48:02.767Z,86.40
2024-01-24T05:50:31.571Z,83.40
2024-01-24T05:53:00.323Z,90.00
2024-01-24T05:55:29.769Z,88.10
2024-01-24T05:57:58.530Z,77.00
2024-01-24T06:00:27.435Z,82.70
2024-01-24T06:02:56.188Z,83.60
2024-01-24T06:05:25.172Z,80.30
2024-01-24T06:07:54.248Z,81.80
2024-01-24T06:10:23.162Z,76.60
2024-01-24T06:12:52.039Z,77.40
2024-01-24T06:15:21.192Z,89.10
2024-01-24T06:17:50.392Z,85.80
2024-01-24T06:20:19.302Z,80.50
2024-01-24T06:22:48.041Z,81.10
2024-01-24T06:25:17.253Z,71.20
2024-01-24T06:27:46.644Z,75.70
2024-01-24T06:30:22.036Z,80.00
2024-01-24T06:32:53.356Z,91.80
2024-01-24T06:35:22.663Z,81.40
2024-01-24T06:37:53.175Z,81.30
2024-01-24T06:40:22.148Z,88.50
2024-01-24T06:42:52.047Z,82.00
2024-01-24T06:45:21.575Z,86.80
2024-01-24T06:47:50.552Z,91.50
2024-01-24T06:50:19.831Z,90.40
2024-01-24T06:52:48.826Z,77.30
2024-01-24T06:55:19.024Z,76.70
2024-01-24T06:57:48.082Z,74.90
2024-01-24T07:00:17.607Z,76.00
2024-01-24T07:02:46.398Z,71.20
2024-01-24T07:05:15.436Z,70.60
2024-01-24T07:07:44.271Z,80.80
2024-01-24T07:10:13.546Z,85.20
2024-01-24T07:12:47.450Z,96.00
2024-01-24T07:15:17.941Z,95.90
2024-01-24T07:17:47.410Z,95.70
2024-01-24T07:20:17.487Z,99.90
2024-01-24T07:22:46.280Z,96.70
2024-01-24T07:25:15.178Z,100.70
2024-01-24T07:27:46.286Z,94.60
2024-01-24T07:30:16.935Z,103.70
2024-01-24T07:32:45.987Z,101.10
2024-01-24T07:35:14.857Z,104.50
2024-01-24T07:37:45.736Z,99.40
2024-01-24T07:40:19.634Z,101.20
2024-01-24T07:42:49.047Z,104.50
2024-01-24T07:45:20.061Z,95.40
2024-01-24T07:47:49.837Z,97.50
2024-01-24T07:50:18.963Z,99.90
2024-01-24T07:52:48.097Z,111.30
2024-01-24T07:55:19.822Z,106.20
2024-01-24T07:57:53.746Z,107.80
2024-01-24T08:00:22.641Z,101.80
2024-01-24T08:02:52.106Z,109.40
2024-01-24T08:05:23.533Z,105.60
2024-01-24T08:07:52.548Z,103.10
2024-01-24T08:10:21.728Z,104.50
2024-01-24T08:12:52.252Z,101.90
2024-01-24T08:15:21.964Z,94.50
2024-01-24T08:17:51.166Z,100.60
2024-01-24T08:20:21.445Z,94.80
2024-01-24T08:22:50.576Z,97.30
2024-01-24T08:25:19.658Z,96.30
2024-01-24T08:27:48.466Z,92.20
2024-01-24T08:30:17.397Z,92.60
2024-01-24T08:32:46.429Z,89.90
2024-01-24T08:35:15.958Z,87.80
2024-01-24T08:37:45.087Z,84.80
2024-01-24T08:40:14.055Z,91.00
2024-01-24T08:42:44.578Z,89.30
2024-01-24T08:45:13.485Z,87.40
2024-01-24T08:47:42.483Z,88.30
2024-01-24T08:50:11.931Z,89.00
2024-01-24T08:52:41.063Z,86.40
2024-01-24T08:55:10.012Z,84.30
2024-01-24T08:57:39.066Z,86.40
2024-01-24T09:00:09.938Z,89.10
2024-01-24T09:02:38.995Z,85.60
2024-01-24T09:05:09.955Z,77.90
2024-01-24T09:07:39.771Z,79.10
2024-01-24T09:10:10.204Z,81.40
2024-01-24T09:12:39.698Z,78.70
2024-01-24T09:15:09.337Z,85.20
2024-01-24T09:17:38.387Z,83.20
2024-01-24T09:20:10.288Z,81.00
2024-01-24T09:22:39.337Z,88.00
2024-01-24T09:25:09.896Z,91.10
2024-01-24T09:27:41.482Z,92.90
2024-01-24T09:30:11.534Z,92.00
2024-01-24T09:32:40.448Z,95.10
2024-01-24T09:35:10.069Z,95.10
2024-01-24T09:37:39.118Z,97.30
2024-01-24T09:40:10.526Z,88.00
2024-01-24T09:42:44.914Z,84.90
2024-01-24T09:45:20.147Z,82.50
2024-01-24T09:47:50.848Z,87.50
2024-01-24T09:50:20.459Z,91.10
2024-01-24T09:52:51.567Z,92.00
2024-01-24T09:55:22.134Z,88.40
2024-01-24T09:57:51.606Z,92.50
2024-01-24T10:00:20.728Z,91.40
2024-01-24T10:02:50.117Z,83.30
2024-01-24T10:05:21.733Z,88.20
2024-01-24T10:07:51.932Z,87.50
2024-01-24T10:10:20.846Z,86.50
2024-01-24T10:12:49.795Z,80.60
2024-01-24T10:15:19.256Z,79.40
2024-01-24T10:17:48.195Z,84.70
2024-01-24T10:20:17.290Z,78.00
2024-01-24T10:22:47.608Z,78.60
2024-01-24T10:25:18.174Z,83.30
2024-01-24T10:27:47.026Z,76.70
2024-01-24T10:30:17.423Z,81.00
2024-01-24T10:32:50.256Z,74.40
2024-01-24T10:35:20.045Z,73.20
2024-01-24T10:37:49.102Z,78.20
2024-01-24T10:40:18.912Z,72.50
2024-01-24T10:42:55.052Z,64.80
2024-01-24T10:45:27.548Z,64.70
2024-01-24T10:47:56.961Z,54.80
2024-01-24T10:50:26.799Z,55.70
2024-01-24T10:52:56.559Z,57.30
2024-01-24T10:55:26.215Z,48.00
2024-01-24T10:57:55.540Z,54.70
2024-01-24T11:00:26.565Z,54.80
2024-01-24T11:02:56.411Z,63.10
2024-01-24T11:05:40.697Z,54.70
2024-01-24T11:08:17.525Z,55.30
2024-01-24T11:10:50.325Z,52.30
2024-01-24T11:13:20.377Z,31.90
2024-01-24T11:15:49.177Z,26.30
2024-01-24T11:18:24.223Z,24.40
2024-01-24T11:21:01.068Z,28.90
2024-01-24T11:23:47.316Z,28.20
2024-01-24T11:26:19.375Z,26.80
2024-01-24T11:28:48.217Z,26.70
2024-01-24T11:31:38.299Z,25.80
2024-01-24T11:34:14.680Z,24.50
2024-01-24T11:36:50.227Z,24.70
2024-01-24T11:39:32.148Z,25.70
2024-01-24T11:42:44.657Z,23.10
2024-01-24T11:45:15.926Z,22.40
2024-01-24T11:47:45.259Z,23.40
2024-01-24T11:50:15.146Z,21.70
2024-01-24T11:52:46.975Z,22.50
2024-01-24T11:55:16.040Z,32.20
2024-01-24T11:57:44.913Z,24.90
2024-01-24T12:00:16.253Z,26.80
2024-01-24T12:02:46.775Z,23.70
2024-01-24T12:05:17.695Z,23.30
2024-01-24T12:07:46.751Z,24.10
2024-01-24T12:10:15.677Z,24.00
2024-01-24T12:12:45.131Z,27.20
2024-01-24T12:15:14.216Z,27.60
2024-01-24T12:17:45.074Z,23.80
2024-01-24T12:20:25.319Z,27.50
2024-01-24T12:22:54.279Z,24.50
2024-01-24T12:25:23.720Z,27.50
2024-01-24T12:27:52.888Z,25.20
2024-01-24T12:30:23.146Z,27.50
2024-01-24T12:32:58.647Z,29.00
2024-01-24T12:35:29.888Z,27.50
2024-01-24T12:38:03.770Z,32.20
2024-01-24T12:40:33.356Z,33.90
2024-01-24T12:43:02.452Z,26.70
2024-01-24T12:45:31.335Z,30.40
2024-01-24T12:48:00.459Z,31.60
2024-01-24T12:50:29.707Z,30.00
2024-01-24T12:52:58.621Z,29.40
2024-01-24T12:55:28.304Z,30.10
2024-01-24T12:57:57.227Z,27.80
2024-01-24T13:00:26.148Z,23.70
2024-01-24T13:02:54.928Z,27.30
2024-01-24T13:05:32.003Z,27.30
2024-01-24T13:08:09.705Z,27.20
2024-01-24T13:10:44.114Z,27.20
2024-01-24T13:13:13.333Z,25.80
2024-01-24T13:15:42.620Z,29.80
2024-01-24T13:18:12.670Z,26.60
2024-01-24T13:20:41.622Z,27.40
2024-01-24T13:23:10.348Z,28.00
2024-01-24T13:25:39.360Z,27.00
2024-01-24T13:28:11.090Z,24.70
2024-01-24T13:30:41.018Z,27.60
2024-01-24T13:33:11.267Z,25.70
2024-01-24T13:35:40.404Z,28.20
2024-01-24T13:38:09.637Z,26.40
2024-01-24T13:40:39.709Z,28.90
2024-01-24T13:43:08.516Z,33.80
2024-01-24T13:45:39.895Z,29.10
2024-01-24T13:48:11.167Z,30.00
2024-01-24T13:50:40.260Z,30.20
2024-01-24T13:53:09.200Z,30.20
2024-01-24T13:55:38.025Z,30.90
2024-01-24T13:58:07.254Z,30.90
2024-01-24T14:00:36.207Z,30.60
2024-01-24T14:03:06.525Z,29.10
2024-01-24T14:05:36.837Z,30.70
2024-01-24T14:08:09.384Z,34.10
2024-01-24T14:10:38.533Z,34.10
2024-01-24T14:13:08.049Z,33.00
2024-01-24T14:15:37.820Z,36.80
2024-01-24T14:18:07.333Z,34.40
2024-01-24T14:20:36.286Z,33.40
2024-01-24T14:23:07.582Z,30.80
2024-01-24T14:25:36.392Z,37.50
2024-01-24T14:28:05.869Z,37.20
2024-01-24T14:30:34.881Z,35.50
2024-01-24T14:33:05.359Z,34.60
2024-01-24T14:35:35.023Z,36.40
2024-01-24T14:38:04.132Z,36.10
2024-01-24T14:40:33.642Z,33.10
2024-01-24T14:43:05.314Z,37.00
2024-01-24T14:45:34.300Z,36.80
2024-01-24T14:48:03.214Z,31.00
2024-01-24T14:50:32.014Z,35.60
2024-01-24T14:53:00.975Z,36.20
2024-01-24T14:55:29.937Z,38.20
2024-01-24T14:58:01.339Z,33.20
2024-01-24T15:00:30.304Z,36.90
2024-01-24T15:02:59.476Z,40.90
2024-01-24T15:05:28.318Z,43.70
2024-01-24T15:07:57.305Z,36.30
2024-01-24T15:10:26.101Z,39.30
2024-01-24T15:12:54.964Z,44.40
2024-01-24T15:15:23.921Z,43.40
2024-01-24T15:17:53.373Z,43.30
2024-01-24T15:20:22.432Z,45.50
2024-01-24T15:22:51.471Z,42.60
2024-01-24T15:25:20.582Z,45.20
2024-01-24T15:27:50.917Z,38.80
2024-01-24T15:30:20.194Z,45.70
2024-01-24T15:32:48.957Z,45.30
2024-01-24T15:35:17.910Z,44.30
2024-01-24T15:37:46.876Z,59.20
2024-01-24T15:40:18.353Z,51.30
2024-01-24T15:42:47.681Z,50.00
2024-01-24T15:45:18.072Z,46.40
2024-01-24T15:47:47.000Z,44.80
2024-01-24T15:50:15.955Z,45.80
2024-01-24T15:52:44.705Z,50.00
2024-01-24T15:55:13.692Z,48.80
2024-01-24T15:57:42.756Z,51.90
2024-01-24T16:00:12.601Z,46.60
2024-01-24T16:02:42.692Z,46.40
2024-01-24T16:05:36.692Z,50.70
2024-01-24T16:08:06.235Z,53.30
2024-01-24T16:10:35.108Z,52.10
2024-01-24T16:13:04.908Z,58.50
2024-01-24T16:15:33.960Z,59.70
2024-01-24T16:18:03.268Z,54.80
2024-01-24T16:20:32.075Z,68.60
2024-01-24T16:23:01.259Z,54.60
2024-01-24T16:25:30.115Z,58.00
2024-01-24T16:27:59.310Z,51.20
2024-01-24T16:30:29.700Z,52.60
2024-01-24T16:32:59.007Z,51.10
2024-01-24T16:35:28.381Z,48.70
2024-01-24T16:37:57.467Z,53.90
2024-01-24T16:40:26.238Z,48.20
2024-01-24T16:42:55.025Z,50.60
2024-01-24T16:45:24.251Z,52.40
2024-01-24T16:47:53.126Z,56.60
2024-01-24T16:50:21.951Z,50.80
2024-01-24T16:52:51.023Z,50.30
2024-01-24T16:55:20.286Z,52.10
2024-01-24T16:57:49.101Z,55.10
2024-01-24T17:00:19.288Z,42.90
2024-01-24T17:02:51.737Z,49.30
2024-01-24T17:05:27.003Z,50.40
2024-01-24T17:07:55.788Z,46.80
2024-01-24T17:10:24.576Z,50.70
2024-01-24T17:12:53.450Z,48.10
2024-01-24T17:15:22.305Z,49.30
2024-01-24T17:17:51.228Z,71.30
2024-01-24T17:20:20.634Z,65.40
2024-01-24T17:22:49.459Z,52.50
2024-01-24T17:25:19.229Z,49.10
2024-01-24T17:27:48.041Z,49.80
2024-01-24T17:30:17.484Z,50.80
2024-01-24T17:32:46.404Z,42.20
2024-01-24T17:35:15.173Z,45.80
2024-01-24T17:37:43.964Z,35.90
2024-01-24T17:40:13.513Z,31.80
2024-01-24T17:42:42.644Z,42.00
2024-01-24T17:45:11.488Z,42.50
2024-01-24T17:47:43.189Z,40.50
2024-01-24T17:50:13.164Z,42.60
2024-01-24T17:52:43.948Z,40.70
2024-01-24T17:55:13.144Z,43.60
2024-01-24T17:57:43.459Z,37.90
2024-01-24T18:00:14.455Z,41.80
2024-01-24T18:02:43.271Z,40.90
2024-01-24T18:05:12.091Z,42.40
2024-01-24T18:07:41.580Z,35.20
2024-01-24T18:10:10.795Z,39.80
2024-01-24T18:12:39.817Z,37.10
2024-01-24T18:15:09.443Z,47.40
2024-01-24T18:17:39.054Z,39.90
2024-01-24T18:20:08.754Z,44.50
2024-01-24T18:22:37.621Z,40.50
2024-01-24T18:25:06.713Z,47.40
2024-01-24T18:27:35.576Z,53.20
2024-01-24T18:30:05.660Z,48.80
2024-01-24T18:32:35.766Z,53.10
2024-01-24T18:35:05.627Z,55.50
2024-01-24T18:37:34.380Z,59.30
2024-01-24T18:40:07.831Z,52.70
2024-01-24T18:42:37.382Z,59.30
2024-01-24T18:45:11.927Z,58.40
2024-01-24T18:47:40.966Z,70.70
2024-01-24T18:50:10.210Z,59.60
2024-01-24T18:52:39.430Z,60.90
2024-01-24T18:55:11.935Z,61.80
2024-01-24T18:57:40.746Z,63.00
2024-01-24T19:00:11.122Z,55.70
2024-01-24T19:02:40.191Z,56.80
2024-01-24T19:05:15.896Z,54.10
2024-01-24T19:07:48.689Z,52.40
2024-01-24T19:10:17.657Z,57.20
2024-01-24T19:12:46.722Z,52.50
2024-01-24T19:15:15.775Z,52.70
2024-01-24T19:17:44.716Z,54.20
2024-01-24T19:20:16.208Z,56.10
2024-01-24T19:22:45.114Z,54.70
2024-01-24T19:25:14.222Z,55.10
2024-01-24T19:27:43.375Z,46.20
2024-01-24T19:30:13.274Z,47.80
2024-01-24T19:32:42.403Z,47.40
2024-01-24T19:35:11.211Z,50.00
2024-01-24T19:37:39.921Z,46.70
2024-01-24T19:40:09.824Z,50.90
2024-01-24T19:42:38.656Z,48.50
2024-01-24T19:45:08.373Z,43.50
2024-01-24T19:47:39.825Z,53.00
2024-01-24T19:50:11.737Z,52.60
2024-01-24T19:52:40.583Z,48.50
2024-01-24T19:55:10.008Z,51.60
2024-01-24T19:57:40.098Z,53.70
2024-01-24T20:00:12.750Z,50.30
2024-01-24T20:02:41.781Z,51.50
2024-01-24T20:05:10.750Z,45.60
2024-01-24T20:07:39.768Z,50.40
2024-01-24T20:10:09.191Z,50.00
2024-01-24T20:12:38.018Z,51.80
2024-01-24T20:15:07.711Z,55.90
2024-01-24T20:17:36.519Z,51.90
2024-01-24T20:20:07.078Z,55.50
2024-01-24T20:22:35.866Z,40.10
2024-01-24T20:25:04.986Z,40.30
2024-01-24T20:27:34.017Z,41.80
2024-01-24T20:30:02.972Z,73.20
2024-01-24T20:32:31.780Z,57.80
2024-01-24T20:35:00.590Z,45.70
2024-01-24T20:37:29.421Z,45.00
2024-01-24T20:39:58.196Z,48.60
2024-01-24T20:42:29.426Z,45.80
2024-01-24T20:44:59.241Z,40.00
2024-01-24T20:47:28.679Z,37.20
2024-01-24T20:49:57.708Z,37.20
2024-01-24T20:52:26.593Z,39.00
2024-01-24T20:54:55.319Z,40.70
2024-01-24T20:57:24.036Z,40.10
2024-01-24T20:59:53.150Z,40.00
2024-01-24T21:02:22.520Z,42.60
2024-01-24T21:04:51.939Z,42.90
2024-01-24T21:07:21.038Z,38.10
2024-01-24T21:09:50.443Z,41.60
2024-01-24T21:12:19.950Z,39.60
2024-01-24T21:14:48.884Z,44.50
2024-01-24T21:17:18.387Z,40.90
2024-01-24T21:19:47.339Z,37.20
2024-01-24T21:22:16.156Z,44.50
2024-01-24T21:24:45.932Z,41.50
2024-01-24T21:27:14.606Z,40.50
2024-01-24T21:29:45.446Z,42.60
2024-01-24T21:32:15.008Z,48.40
2024-01-24T21:34:43.992Z,44.90
2024-01-24T21:37:12.731Z,43.80
2024-01-24T21:39:42.065Z,46.30
2024-01-24T21:42:10.800Z,44.00
2024-01-24T21:44:39.544Z,46.00
2024-01-24T21:47:08.312Z,49.30
2024-01-24T21:49:39.733Z,45.70
2024-01-24T21:52:09.478Z,44.70
2024-01-24T21:54:40.239Z,46.20
2024-01-24T21:57:08.960Z,42.10
2024-01-24T21:59:37.699Z,45.10
2024-01-24T22:02:06.483Z,43.30
2024-01-24T22:04:35.207Z,44.80
2024-01-24T22:07:04.637Z,43.10
2024-01-24T22:09:33.486Z,43.80
2024-01-24T22:12:02.353Z,47.40
2024-01-24T22:14:31.297Z,41.70
2024-01-24T22:17:00.000Z,49.20
2024-01-24T22:19:28.930Z,42.40
2024-01-24T22:21:58.183Z,42.30
2024-01-24T22:24:27.004Z,41.80
2024-01-24T22:26:55.717Z,38.80
2024-01-24T22:29:24.584Z,43.60
2024-01-24T22:31:53.411Z,42.10
2024-01-24T22:34:22.384Z,44.70
2024-01-24T22:36:51.267Z,44.20
2024-01-24T22:39:20.515Z,41.00
2024-01-24T22:41:49.230Z,39.50
2024-01-24T22:44:20.946Z,41.20
2024-01-24T22:46:49.665Z,43.60
2024-01-24T22:49:18.436Z,40.70
2024-01-24T22:51:47.355Z,41.80
2024-01-24T22:54:17.118Z,45.70
2024-01-24T22:56:45.857Z,45.10
2024-01-24T22:59:14.613Z,43.00
2024-01-24T23:01:43.374Z,42.20
2024-01-24T23:04:12.733Z,44.30
2024-01-24T23:06:41.644Z,45.20
2024-01-24T23:09:10.438Z,42.50
2024-01-24T23:11:40.138Z,43.60
2024-01-24T23:14:08.861Z,44.80
2024-01-24T23:16:37.526Z,47.60
2024-01-24T23:19:06.343Z,43.10
2024-01-24T23:21:35.482Z,42.40
2024-01-24T23:24:04.662Z,43.10
2024-01-24T23:26:33.348Z,49.20
2024-01-24T23:29:02.127Z,43.40
2024-01-24T23:31:30.882Z,40.20
2024-01-24T23:33:59.792Z,49.70
2024-01-24T23:36:28.775Z,42.70
2024-01-24T23:38:57.480Z,35.00
2024-01-24T23:41:26.220Z,38.60
2024-01-24T23:43:54.889Z,39.20
2024-01-24T23:46:23.692Z,39.80
2024-01-24T23:48:52.741Z,45.60
2024-01-24T23:51:21.865Z,46.10
2024-01-24T23:53:50.666Z,52.00
2024-01-24T23:56:19.930Z,41.60
2024-01-24T23:58:49.013Z,44.10
